sensor_id;sensor_type;location;lat;lon;timestamp;P1;durP1;ratioP1;P2;durP2;ratioP2
56943;SDS011;42848;42.524;12.052;2023-08-06T00:00:06;1.63;;;0.77;;
56943;SDS011;42848;42.524;12.052;2023-08-06T00:02:33;1.20;;;0.70;;
56943;SDS011;42848;42.524;12.052;2023-08-06T00:04:59;3.20;;;0.80;;
56943;SDS011;42848;42.524;12.052;2023-08-06T00:07:24;1.08;;;0.70;;
56943;SDS011;42848;42.524;12.052;2023-08-06T00:09:50;1.67;;;0.80;;
56943;SDS011;42848;42.524;12.052;2023-08-06T00:12:15;2.40;;;0.60;;
56943;SDS011;42848;42.524;12.052;2023-08-06T00:14:41;1.27;;;0.65;;
56943;SDS011;42848;42.524;12.052;2023-08-06T00:17:08;1.77;;;0.70;;
56943;SDS011;42848;42.524;12.052;2023-08-06T00:19:33;2.40;;;0.70;;
56943;SDS011;42848;42.524;12.052;2023-08-06T00:21:59;1.70;;;0.70;;
56943;SDS011;42848;42.524;12.052;2023-08-06T00:24:24;1.55;;;0.70;;
56943;SDS011;42848;42.524;12.052;2023-08-06T00:26:50;2.85;;;0.60;;
56943;SDS011;42848;42.524;12.052;2023-08-06T00:29:16;2.08;;;0.77;;
56943;SDS011;42848;42.524;12.052;2023-08-06T00:31:41;1.52;;;0.70;;
56943;SDS011;42848;42.524;12.052;2023-08-06T00:34:07;2.00;;;0.80;;
56943;SDS011;42848;42.524;12.052;2023-08-06T00:36:32;1.52;;;0.70;;
56943;SDS011;42848;42.524;12.052;2023-08-06T00:38:58;1.30;;;0.80;;
56943;SDS011;42848;42.524;12.052;2023-08-06T00:41:23;1.20;;;0.70;;
56943;SDS011;42848;42.524;12.052;2023-08-06T00:43:49;1.50;;;0.80;;
56943;SDS011;42848;42.524;12.052;2023-08-06T00:46:15;1.35;;;0.70;;
56943;SDS011;42848;42.524;12.052;2023-08-06T00:48:40;4.07;;;0.80;;
56943;SDS011;42848;42.524;12.052;2023-08-06T00:51:08;2.13;;;0.82;;
56943;SDS011;42848;42.524;12.052;2023-08-06T00:53:36;1.33;;;0.80;;
56943;SDS011;42848;42.524;12.052;2023-08-06T00:56:05;2.08;;;0.80;;
56943;SDS011;42848;42.524;12.052;2023-08-06T00:58:32;2.22;;;0.75;;
56943;SDS011;42848;42.524;12.052;2023-08-06T01:00:57;1.05;;;0.65;;
56943;SDS011;42848;42.524;12.052;2023-08-06T01:03:23;1.38;;;0.70;;
56943;SDS011;42848;42.524;12.052;2023-08-06T01:05:49;1.38;;;0.88;;
56943;SDS011;42848;42.524;12.052;2023-08-06T01:13:42;1.30;;;0.70;;
56943;SDS011;42848;42.524;12.052;2023-08-06T01:16:11;1.60;;;0.70;;
56943;SDS011;42848;42.524;12.052;2023-08-06T01:18:42;1.23;;;0.70;;
56943;SDS011;42848;42.524;12.052;2023-08-06T01:21:14;1.48;;;0.70;;
56943;SDS011;42848;42.524;12.052;2023-08-06T01:23:41;2.15;;;0.90;;
56943;SDS011;42848;42.524;12.052;2023-08-06T01:31:26;1.42;;;0.90;;
56943;SDS011;42848;42.524;12.052;2023-08-06T01:33:55;6.20;;;0.80;;
56943;SDS011;42848;42.524;12.052;2023-08-06T01:36:23;1.20;;;0.70;;
56943;SDS011;42848;42.524;12.052;2023-08-06T01:38:51;2.75;;;0.77;;
56943;SDS011;42848;42.524;12.052;2023-08-06T01:41:18;1.30;;;0.70;;
56943;SDS011;42848;42.524;12.052;2023-08-06T01:43:44;1.70;;;0.65;;
56943;SDS011;42848;42.524;12.052;2023-08-06T01:46:09;1.55;;;0.80;;
56943;SDS011;42848;42.524;12.052;2023-08-06T01:48:35;1.67;;;0.80;;
56943;SDS011;42848;42.524;12.052;2023-08-06T01:51:01;1.90;;;0.70;;
56943;SDS011;42848;42.524;12.052;2023-08-06T01:53:28;1.08;;;0.65;;
56943;SDS011;42848;42.524;12.052;2023-08-06T01:55:54;1.67;;;0.70;;
56943;SDS011;42848;42.524;12.052;2023-08-06T01:58:20;2.33;;;0.70;;
56943;SDS011;42848;42.524;12.052;2023-08-06T02:00:45;1.40;;;0.70;;
56943;SDS011;42848;42.524;12.052;2023-08-06T02:03:11;3.05;;;0.70;;
56943;SDS011;42848;42.524;12.052;2023-08-06T02:05:36;2.40;;;0.88;;
56943;SDS011;42848;42.524;12.052;2023-08-06T02:08:02;1.23;;;0.60;;
56943;SDS011;42848;42.524;12.052;2023-08-06T02:10:28;1.45;;;0.80;;
56943;SDS011;42848;42.524;12.052;2023-08-06T02:12:53;2.63;;;0.85;;
56943;SDS011;42848;42.524;12.052;2023-08-06T02:15:19;2.25;;;0.60;;
56943;SDS011;42848;42.524;12.052;2023-08-06T02:17:44;1.40;;;0.70;;
56943;SDS011;42848;42.524;12.052;2023-08-06T02:20:10;2.22;;;0.80;;
56943;SDS011;42848;42.524;12.052;2023-08-06T02:22:36;1.13;;;0.70;;
56943;SDS011;42848;42.524;12.052;2023-08-06T02:25:01;1.17;;;0.75;;
56943;SDS011;42848;42.524;12.052;2023-08-06T02:27:27;1.48;;;0.60;;
56943;SDS011;42848;42.524;12.052;2023-08-06T02:29:52;2.05;;;0.70;;
56943;SDS011;42848;42.524;12.052;2023-08-06T02:32:18;1.30;;;0.70;;
56943;SDS011;42848;42.524;12.052;2023-08-06T02:34:43;1.77;;;0.80;;
56943;SDS011;42848;42.524;12.052;2023-08-06T02:37:09;2.55;;;0.80;;
56943;SDS011;42848;42.524;12.052;2023-08-06T02:39:34;1.70;;;0.80;;
56943;SDS011;42848;42.524;12.052;2023-08-06T02:42:01;2.55;;;0.90;;
56943;SDS011;42848;42.524;12.052;2023-08-06T02:44:28;1.92;;;0.80;;
56943;SDS011;42848;42.524;12.052;2023-08-06T02:46:53;3.60;;;0.90;;
56943;SDS011;42848;42.524;12.052;2023-08-06T02:49:19;2.00;;;0.80;;
56943;SDS011;42848;42.524;12.052;2023-08-06T02:51:45;1.70;;;0.82;;
56943;SDS011;42848;42.524;12.052;2023-08-06T02:54:11;2.00;;;0.80;;
56943;SDS011;42848;42.524;12.052;2023-08-06T02:56:36;1.77;;;0.90;;
56943;SDS011;42848;42.524;12.052;2023-08-06T02:59:02;1.60;;;0.73;;
56943;SDS011;42848;42.524;12.052;2023-08-06T03:01:27;2.38;;;0.90;;
56943;SDS011;42848;42.524;12.052;2023-08-06T03:03:53;1.85;;;0.80;;
56943;SDS011;42848;42.524;12.052;2023-08-06T03:06:19;2.05;;;0.98;;
56943;SDS011;42848;42.524;12.052;2023-08-06T03:08:45;1.90;;;1.05;;
56943;SDS011;42848;42.524;12.052;2023-08-06T03:11:10;2.55;;;1.10;;
56943;SDS011;42848;42.524;12.052;2023-08-06T03:13:36;1.83;;;0.90;;
56943;SDS011;42848;42.524;12.052;2023-08-06T03:16:01;2.47;;;1.33;;
56943;SDS011;42848;42.524;12.052;2023-08-06T03:18:27;3.58;;;1.70;;
56943;SDS011;42848;42.524;12.052;2023-08-06T03:20:53;2.40;;;1.48;;
56943;SDS011;42848;42.524;12.052;2023-08-06T03:23:19;6.00;;;3.17;;
56943;SDS011;42848;42.524;12.052;2023-08-06T03:25:45;2.75;;;1.70;;
56943;SDS011;42848;42.524;12.052;2023-08-06T03:28:11;2.95;;;1.50;;
56943;SDS011;42848;42.524;12.052;2023-08-06T03:30:38;3.80;;;1.63;;
56943;SDS011;42848;42.524;12.052;2023-08-06T03:33:03;2.95;;;1.67;;
56943;SDS011;42848;42.524;12.052;2023-08-06T03:35:29;2.53;;;1.40;;
56943;SDS011;42848;42.524;12.052;2023-08-06T03:37:55;2.80;;;1.58;;
56943;SDS011;42848;42.524;12.052;2023-08-06T03:40:21;4.25;;;1.40;;
56943;SDS011;42848;42.524;12.052;2023-08-06T03:42:46;2.60;;;1.08;;
56943;SDS011;42848;42.524;12.052;2023-08-06T03:45:12;7.22;;;1.10;;
56943;SDS011;42848;42.524;12.052;2023-08-06T03:47:37;2.40;;;1.25;;
56943;SDS011;42848;42.524;12.052;2023-08-06T03:50:03;1.77;;;1.10;;
56943;SDS011;42848;42.524;12.052;2023-08-06T03:52:29;1.88;;;1.00;;
56943;SDS011;42848;42.524;12.052;2023-08-06T03:54:55;3.03;;;1.38;;
56943;SDS011;42848;42.524;12.052;2023-08-06T03:57:20;1.60;;;0.90;;
56943;SDS011;42848;42.524;12.052;2023-08-06T03:59:46;2.42;;;0.90;;
56943;SDS011;42848;42.524;12.052;2023-08-06T04:02:11;1.63;;;0.98;;
56943;SDS011;42848;42.524;12.052;2023-08-06T04:04:37;2.55;;;1.00;;
56943;SDS011;42848;42.524;12.052;2023-08-06T04:07:02;1.90;;;1.00;;
56943;SDS011;42848;42.524;12.052;2023-08-06T04:09:28;1.55;;;0.98;;
56943;SDS011;42848;42.524;12.052;2023-08-06T04:11:54;1.73;;;0.90;;
56943;SDS011;42848;42.524;12.052;2023-08-06T04:14:21;1.98;;;1.00;;
56943;SDS011;42848;42.524;12.052;2023-08-06T04:16:46;1.67;;;1.00;;
56943;SDS011;42848;42.524;12.052;2023-08-06T04:19:12;2.28;;;0.90;;
56943;SDS011;42848;42.524;12.052;2023-08-06T04:21:37;1.88;;;1.05;;
56943;SDS011;42848;42.524;12.052;2023-08-06T04:24:03;1.60;;;0.90;;
56943;SDS011;42848;42.524;12.052;2023-08-06T04:26:29;2.95;;;1.00;;
56943;SDS011;42848;42.524;12.052;2023-08-06T04:28:54;2.08;;;0.80;;
56943;SDS011;42848;42.524;12.052;2023-08-06T04:31:21;3.45;;;1.00;;
56943;SDS011;42848;42.524;12.052;2023-08-06T04:33:47;1.67;;;0.75;;
56943;SDS011;42848;42.524;12.052;2023-08-06T04:36:12;2.75;;;0.70;;
56943;SDS011;42848;42.524;12.052;2023-08-06T04:38:38;1.88;;;0.80;;
56943;SDS011;42848;42.524;12.052;2023-08-06T04:41:03;2.83;;;0.85;;
56943;SDS011;42848;42.524;12.052;2023-08-06T04:43:29;2.03;;;0.93;;
56943;SDS011;42848;42.524;12.052;2023-08-06T04:45:55;1.52;;;0.90;;
56943;SDS011;42848;42.524;12.052;2023-08-06T04:48:22;1.52;;;0.80;;
56943;SDS011;42848;42.524;12.052;2023-08-06T04:50:48;1.75;;;0.73;;
56943;SDS011;42848;42.524;12.052;2023-08-06T04:53:15;1.80;;;0.80;;
56943;SDS011;42848;42.524;12.052;2023-08-06T04:55:41;1.58;;;0.82;;
56943;SDS011;42848;42.524;12.052;2023-08-06T04:58:08;1.52;;;0.90;;
56943;SDS011;42848;42.524;12.052;2023-08-06T05:00:35;1.65;;;0.80;;
56943;SDS011;42848;42.524;12.052;2023-08-06T05:03:00;2.30;;;0.80;;
56943;SDS011;42848;42.524;12.052;2023-08-06T05:05:26;2.95;;;0.80;;
56943;SDS011;42848;42.524;12.052;2023-08-06T05:07:53;1.67;;;1.00;;
56943;SDS011;42848;42.524;12.052;2023-08-06T05:10:20;2.50;;;0.90;;
56943;SDS011;42848;42.524;12.052;2023-08-06T05:12:46;2.67;;;1.00;;
56943;SDS011;42848;42.524;12.052;2023-08-06T05:15:12;2.47;;;1.20;;
56943;SDS011;42848;42.524;12.052;2023-08-06T05:17:37;3.05;;;1.05;;
56943;SDS011;42848;42.524;12.052;2023-08-06T05:20:03;1.65;;;0.85;;
56943;SDS011;42848;42.524;12.052;2023-08-06T05:22:29;2.80;;;0.95;;
56943;SDS011;42848;42.524;12.052;2023-08-06T05:24:54;2.58;;;1.10;;
56943;SDS011;42848;42.524;12.052;2023-08-06T05:27:20;2.53;;;0.95;;
56943;SDS011;42848;42.524;12.052;2023-08-06T05:29:45;2.47;;;0.90;;
56943;SDS011;42848;42.524;12.052;2023-08-06T05:32:13;1.92;;;0.90;;
56943;SDS011;42848;42.524;12.052;2023-08-06T05:34:38;2.35;;;1.00;;
56943;SDS011;42848;42.524;12.052;2023-08-06T05:37:04;2.47;;;1.00;;
56943;SDS011;42848;42.524;12.052;2023-08-06T05:39:30;2.40;;;0.88;;
56943;SDS011;42848;42.524;12.052;2023-08-06T05:41:55;1.35;;;0.75;;
56943;SDS011;42848;42.524;12.052;2023-08-06T05:44:21;1.80;;;0.90;;
56943;SDS011;42848;42.524;12.052;2023-08-06T05:46:49;1.80;;;0.90;;
56943;SDS011;42848;42.524;12.052;2023-08-06T05:49:14;1.60;;;0.88;;
56943;SDS011;42848;42.524;12.052;2023-08-06T05:51:41;1.98;;;1.05;;
56943;SDS011;42848;42.524;12.052;2023-08-06T05:54:07;3.25;;;1.80;;
56943;SDS011;42848;42.524;12.052;2023-08-06T05:56:32;4.95;;;3.22;;
56943;SDS011;42848;42.524;12.052;2023-08-06T05:58:58;2.80;;;2.40;;
56943;SDS011;42848;42.524;12.052;2023-08-06T06:01:24;4.05;;;1.50;;
56943;SDS011;42848;42.524;12.052;2023-08-06T06:03:49;3.10;;;1.52;;
56943;SDS011;42848;42.524;12.052;2023-08-06T06:06:15;2.38;;;1.58;;
56943;SDS011;42848;42.524;12.052;2023-08-06T06:08:41;2.75;;;1.30;;
56943;SDS011;42848;42.524;12.052;2023-08-06T06:11:07;2.00;;;1.10;;
56943;SDS011;42848;42.524;12.052;2023-08-06T06:13:32;3.60;;;1.48;;
56943;SDS011;42848;42.524;12.052;2023-08-06T06:15:58;2.30;;;1.35;;
56943;SDS011;42848;42.524;12.052;2023-08-06T06:18:23;3.25;;;1.70;;
56943;SDS011;42848;42.524;12.052;2023-08-06T06:20:49;2.65;;;1.83;;
56943;SDS011;42848;42.524;12.052;2023-08-06T06:23:15;2.30;;;1.38;;
56943;SDS011;42848;42.524;12.052;2023-08-06T06:25:46;3.88;;;1.88;;
56943;SDS011;42848;42.524;12.052;2023-08-06T06:28:13;2.65;;;1.75;;
56943;SDS011;42848;42.524;12.052;2023-08-06T06:30:38;2.30;;;1.48;;
56943;SDS011;42848;42.524;12.052;2023-08-06T06:33:04;3.17;;;1.60;;
56943;SDS011;42848;42.524;12.052;2023-08-06T06:35:29;2.65;;;1.30;;
56943;SDS011;42848;42.524;12.052;2023-08-06T06:37:55;3.20;;;1.40;;
56943;SDS011;42848;42.524;12.052;2023-08-06T06:40:20;3.22;;;1.30;;
56943;SDS011;42848;42.524;12.052;2023-08-06T06:42:46;2.75;;;1.40;;
56943;SDS011;42848;42.524;12.052;2023-08-06T06:45:12;2.92;;;1.45;;
56943;SDS011;42848;42.524;12.052;2023-08-06T06:47:37;3.47;;;1.45;;
56943;SDS011;42848;42.524;12.052;2023-08-06T06:50:03;3.88;;;1.40;;
56943;SDS011;42848;42.524;12.052;2023-08-06T06:52:29;4.63;;;1.60;;
56943;SDS011;42848;42.524;12.052;2023-08-06T06:54:55;3.75;;;1.55;;
56943;SDS011;42848;42.524;12.052;2023-08-06T06:57:20;4.55;;;1.70;;
56943;SDS011;42848;42.524;12.052;2023-08-06T06:59:46;4.45;;;1.70;;
56943;SDS011;42848;42.524;12.052;2023-08-06T07:02:11;4.60;;;1.60;;
56943;SDS011;42848;42.524;12.052;2023-08-06T07:04:37;3.25;;;1.52;;
56943;SDS011;42848;42.524;12.052;2023-08-06T07:07:03;4.18;;;1.70;;
56943;SDS011;42848;42.524;12.052;2023-08-06T07:09:29;4.75;;;1.90;;
56943;SDS011;42848;42.524;12.052;2023-08-06T07:11:54;3.58;;;1.80;;
56943;SDS011;42848;42.524;12.052;2023-08-06T07:14:20;4.60;;;1.70;;
56943;SDS011;42848;42.524;12.052;2023-08-06T07:16:45;4.80;;;2.10;;
56943;SDS011;42848;42.524;12.052;2023-08-06T07:19:11;4.13;;;2.00;;
56943;SDS011;42848;42.524;12.052;2023-08-06T07:21:36;4.53;;;1.98;;
56943;SDS011;42848;42.524;12.052;2023-08-06T07:24:02;3.55;;;2.10;;
56943;SDS011;42848;42.524;12.052;2023-08-06T07:26:28;5.18;;;2.65;;
56943;SDS011;42848;42.524;12.052;2023-08-06T07:28:53;4.63;;;2.85;;
56943;SDS011;42848;42.524;12.052;2023-08-06T07:31:19;5.18;;;2.83;;
56943;SDS011;42848;42.524;12.052;2023-08-06T07:33:44;4.68;;;2.95;;
56943;SDS011;42848;42.524;12.052;2023-08-06T07:36:11;3.40;;;2.63;;
56943;SDS011;42848;42.524;12.052;2023-08-06T07:38:37;4.93;;;2.40;;
56943;SDS011;42848;42.524;12.052;2023-08-06T07:41:03;5.03;;;2.70;;
56943;SDS011;42848;42.524;12.052;2023-08-06T07:43:29;5.75;;;2.60;;
56943;SDS011;42848;42.524;12.052;2023-08-06T07:45:57;7.25;;;2.60;;
56943;SDS011;42848;42.524;12.052;2023-08-06T07:48:25;4.40;;;1.83;;
56943;SDS011;42848;42.524;12.052;2023-08-06T07:50:51;9.52;;;2.92;;
56943;SDS011;42848;42.524;12.052;2023-08-06T07:53:19;4.57;;;2.70;;
56943;SDS011;42848;42.524;12.052;2023-08-06T07:55:50;6.32;;;3.92;;
56943;SDS011;42848;42.524;12.052;2023-08-06T07:58:17;3.50;;;2.33;;
56943;SDS011;42848;42.524;12.052;2023-08-06T08:00:43;5.40;;;2.67;;
56943;SDS011;42848;42.524;12.052;2023-08-06T08:03:13;4.25;;;2.00;;
56943;SDS011;42848;42.524;12.052;2023-08-06T08:05:40;4.82;;;2.35;;
56943;SDS011;42848;42.524;12.052;2023-08-06T08:08:07;5.50;;;2.88;;
56943;SDS011;42848;42.524;12.052;2023-08-06T08:10:32;5.05;;;2.38;;
56943;SDS011;42848;42.524;12.052;2023-08-06T08:13:02;5.10;;;2.85;;
56943;SDS011;42848;42.524;12.052;2023-08-06T08:15:29;4.80;;;2.67;;
56943;SDS011;42848;42.524;12.052;2023-08-06T08:17:57;4.20;;;2.22;;
56943;SDS011;42848;42.524;12.052;2023-08-06T08:20:23;3.90;;;2.20;;
56943;SDS011;42848;42.524;12.052;2023-08-06T08:22:49;5.75;;;2.35;;
56943;SDS011;42848;42.524;12.052;2023-08-06T08:25:15;4.70;;;2.40;;
56943;SDS011;42848;42.524;12.052;2023-08-06T08:27:42;3.67;;;2.35;;
56943;SDS011;42848;42.524;12.052;2023-08-06T08:30:07;31.17;;;22.48;;
56943;SDS011;42848;42.524;12.052;2023-08-06T08:32:33;11.57;;;6.72;;
56943;SDS011;42848;42.524;12.052;2023-08-06T08:34:59;5.07;;;2.47;;
56943;SDS011;42848;42.524;12.052;2023-08-06T08:37:24;5.38;;;2.80;;
56943;SDS011;42848;42.524;12.052;2023-08-06T08:39:50;4.47;;;2.45;;
56943;SDS011;42848;42.524;12.052;2023-08-06T08:42:15;4.18;;;2.58;;
56943;SDS011;42848;42.524;12.052;2023-08-06T08:44:44;6.45;;;2.80;;
56943;SDS011;42848;42.524;12.052;2023-08-06T08:47:10;8.23;;;3.75;;
56943;SDS011;42848;42.524;12.052;2023-08-06T08:49:36;5.28;;;3.05;;
56943;SDS011;42848;42.524;12.052;2023-08-06T08:52:04;7.75;;;4.20;;
56943;SDS011;42848;42.524;12.052;2023-08-06T08:54:35;6.38;;;3.17;;
56943;SDS011;42848;42.524;12.052;2023-08-06T08:57:03;4.30;;;2.10;;
56943;SDS011;42848;42.524;12.052;2023-08-06T08:59:30;4.00;;;2.70;;
56943;SDS011;42848;42.524;12.052;2023-08-06T09:01:58;3.60;;;2.00;;
56943;SDS011;42848;42.524;12.052;2023-08-06T09:04:26;4.97;;;2.10;;
56943;SDS011;42848;42.524;12.052;2023-08-06T09:06:57;4.32;;;2.20;;
56943;SDS011;42848;42.524;12.052;2023-08-06T09:12:06;4.47;;;2.00;;
56943;SDS011;42848;42.524;12.052;2023-08-06T09:14:42;4.97;;;2.08;;
56943;SDS011;42848;42.524;12.052;2023-08-06T09:17:08;4.50;;;2.28;;
56943;SDS011;42848;42.524;12.052;2023-08-06T09:19:39;3.58;;;2.00;;
56943;SDS011;42848;42.524;12.052;2023-08-06T09:22:11;4.97;;;2.17;;
56943;SDS011;42848;42.524;12.052;2023-08-06T09:24:39;3.88;;;2.17;;
56943;SDS011;42848;42.524;12.052;2023-08-06T09:27:13;4.43;;;2.03;;
56943;SDS011;42848;42.524;12.052;2023-08-06T09:29:42;5.47;;;1.70;;
56943;SDS011;42848;42.524;12.052;2023-08-06T09:32:10;3.67;;;1.80;;
56943;SDS011;42848;42.524;12.052;2023-08-06T09:34:39;3.88;;;2.30;;
56943;SDS011;42848;42.524;12.052;2023-08-06T09:37:08;5.57;;;2.00;;
56943;SDS011;42848;42.524;12.052;2023-08-06T09:39:36;4.57;;;2.10;;
56943;SDS011;42848;42.524;12.052;2023-08-06T09:42:03;3.95;;;2.03;;
56943;SDS011;42848;42.524;12.052;2023-08-06T09:44:31;5.57;;;3.45;;
56943;SDS011;42848;42.524;12.052;2023-08-06T09:46:59;4.47;;;2.10;;
56943;SDS011;42848;42.524;12.052;2023-08-06T09:51:57;4.65;;;1.90;;
56943;SDS011;42848;42.524;12.052;2023-08-06T09:54:25;3.65;;;1.73;;
56943;SDS011;42848;42.524;12.052;2023-08-06T09:56:52;2.33;;;1.35;;
56943;SDS011;42848;42.524;12.052;2023-08-06T09:59:19;4.57;;;2.00;;
56943;SDS011;42848;42.524;12.052;2023-08-06T10:01:45;4.20;;;1.73;;
56943;SDS011;42848;42.524;12.052;2023-08-06T10:04:12;3.83;;;1.80;;
56943;SDS011;42848;42.524;12.052;2023-08-06T10:06:41;5.43;;;1.80;;
56943;SDS011;42848;42.524;12.052;2023-08-06T10:09:08;2.88;;;1.58;;
56943;SDS011;42848;42.524;12.052;2023-08-06T10:11:35;4.93;;;1.67;;
56943;SDS011;42848;42.524;12.052;2023-08-06T10:14:04;2.88;;;1.60;;
56943;SDS011;42848;42.524;12.052;2023-08-06T10:16:34;3.83;;;1.50;;
56943;SDS011;42848;42.524;12.052;2023-08-06T10:19:02;6.35;;;2.28;;
56943;SDS011;42848;42.524;12.052;2023-08-06T10:21:33;6.30;;;3.28;;
56943;SDS011;42848;42.524;12.052;2023-08-06T10:23:58;4.68;;;2.03;;
56943;SDS011;42848;42.524;12.052;2023-08-06T10:26:25;4.32;;;1.90;;
56943;SDS011;42848;42.524;12.052;2023-08-06T10:28:53;4.82;;;1.83;;
56943;SDS011;42848;42.524;12.052;2023-08-06T10:31:19;3.83;;;1.80;;
56943;SDS011;42848;42.524;12.052;2023-08-06T10:33:45;3.88;;;1.60;;
56943;SDS011;42848;42.524;12.052;2023-08-06T10:36:12;3.00;;;1.50;;
56943;SDS011;42848;42.524;12.052;2023-08-06T10:38:46;3.60;;;1.40;;
56943;SDS011;42848;42.524;12.052;2023-08-06T10:41:31;4.60;;;1.60;;
56943;SDS011;42848;42.524;12.052;2023-08-06T10:44:07;3.42;;;1.70;;
56943;SDS011;42848;42.524;12.052;2023-08-06T10:46:33;4.45;;;1.95;;
56943;SDS011;42848;42.524;12.052;2023-08-06T10:48:59;7.80;;;2.85;;
56943;SDS011;42848;42.524;12.052;2023-08-06T10:51:25;5.68;;;2.42;;
56943;SDS011;42848;42.524;12.052;2023-08-06T10:53:50;6.60;;;2.33;;
56943;SDS011;42848;42.524;12.052;2023-08-06T10:56:17;6.40;;;2.00;;
56943;SDS011;42848;42.524;12.052;2023-08-06T10:58:45;4.72;;;1.80;;
56943;SDS011;42848;42.524;12.052;2023-08-06T11:01:11;6.15;;;2.20;;
56943;SDS011;42848;42.524;12.052;2023-08-06T11:03:38;5.65;;;2.38;;
56943;SDS011;42848;42.524;12.052;2023-08-06T11:06:04;5.95;;;2.17;;
56943;SDS011;42848;42.524;12.052;2023-08-06T11:08:36;7.82;;;2.53;;
56943;SDS011;42848;42.524;12.052;2023-08-06T11:13:42;10.35;;;4.57;;
56943;SDS011;42848;42.524;12.052;2023-08-06T11:16:11;12.93;;;4.90;;
56943;SDS011;42848;42.524;12.052;2023-08-06T11:18:39;24.08;;;12.27;;
56943;SDS011;42848;42.524;12.052;2023-08-06T11:21:07;12.27;;;4.05;;
56943;SDS011;42848;42.524;12.052;2023-08-06T11:23:33;7.78;;;3.47;;
56943;SDS011;42848;42.524;12.052;2023-08-06T11:26:01;7.35;;;3.58;;
56943;SDS011;42848;42.524;12.052;2023-08-06T11:28:26;7.25;;;3.28;;
56943;SDS011;42848;42.524;12.052;2023-08-06T11:30:52;9.65;;;2.90;;
56943;SDS011;42848;42.524;12.052;2023-08-06T11:33:26;7.40;;;2.78;;
56943;SDS011;42848;42.524;12.052;2023-08-06T11:35:53;11.68;;;4.03;;
56943;SDS011;42848;42.524;12.052;2023-08-06T11:38:21;8.35;;;3.40;;
56943;SDS011;42848;42.524;12.052;2023-08-06T11:40:47;9.50;;;4.18;;
56943;SDS011;42848;42.524;12.052;2023-08-06T11:43:13;10.77;;;4.50;;
56943;SDS011;42848;42.524;12.052;2023-08-06T11:45:40;9.63;;;3.70;;
56943;SDS011;42848;42.524;12.052;2023-08-06T11:48:07;19.77;;;12.98;;
56943;SDS011;42848;42.524;12.052;2023-08-06T11:50:36;11.40;;;6.00;;
56943;SDS011;42848;42.524;12.052;2023-08-06T11:53:05;10.57;;;4.70;;
56943;SDS011;42848;42.524;12.052;2023-08-06T11:55:31;9.02;;;3.40;;
56943;SDS011;42848;42.524;12.052;2023-08-06T11:57:58;10.38;;;4.40;;
56943;SDS011;42848;42.524;12.052;2023-08-06T12:00:24;10.27;;;4.25;;
56943;SDS011;42848;42.524;12.052;2023-08-06T12:02:51;6.65;;;2.65;;
56943;SDS011;42848;42.524;12.052;2023-08-06T12:05:18;8.25;;;3.03;;
56943;SDS011;42848;42.524;12.052;2023-08-06T12:07:52;7.75;;;2.90;;
56943;SDS011;42848;42.524;12.052;2023-08-06T12:10:21;8.13;;;2.75;;
56943;SDS011;42848;42.524;12.052;2023-08-06T12:12:50;9.20;;;3.30;;
56943;SDS011;42848;42.524;12.052;2023-08-06T12:15:16;9.55;;;3.25;;
56943;SDS011;42848;42.524;12.052;2023-08-06T12:17:42;6.50;;;3.20;;
56943;SDS011;42848;42.524;12.052;2023-08-06T12:20:07;12.95;;;6.05;;
56943;SDS011;42848;42.524;12.052;2023-08-06T12:22:34;8.93;;;2.50;;
56943;SDS011;42848;42.524;12.052;2023-08-06T12:25:01;7.65;;;2.80;;
56943;SDS011;42848;42.524;12.052;2023-08-06T12:27:28;6.82;;;2.70;;
56943;SDS011;42848;42.524;12.052;2023-08-06T12:29:54;8.35;;;2.85;;
56943;SDS011;42848;42.524;12.052;2023-08-06T12:32:20;6.80;;;2.70;;
56943;SDS011;42848;42.524;12.052;2023-08-06T12:34:47;10.82;;;6.78;;
56943;SDS011;42848;42.524;12.052;2023-08-06T12:37:12;8.32;;;3.45;;
56943;SDS011;42848;42.524;12.052;2023-08-06T12:39:38;20.77;;;14.23;;
56943;SDS011;42848;42.524;12.052;2023-08-06T12:42:04;9.13;;;3.88;;
56943;SDS011;42848;42.524;12.052;2023-08-06T12:44:31;8.93;;;4.25;;
56943;SDS011;42848;42.524;12.052;2023-08-06T12:46:58;7.43;;;2.30;;
56943;SDS011;42848;42.524;12.052;2023-08-06T12:49:24;9.15;;;5.95;;
56943;SDS011;42848;42.524;12.052;2023-08-06T12:51:52;19.23;;;13.10;;
56943;SDS011;42848;42.524;12.052;2023-08-06T12:54:18;6.72;;;2.30;;
56943;SDS011;42848;42.524;12.052;2023-08-06T12:56:46;4.45;;;1.90;;
56943;SDS011;42848;42.524;12.052;2023-08-06T12:59:13;5.72;;;2.10;;
56943;SDS011;42848;42.524;12.052;2023-08-06T13:01:40;7.60;;;3.00;;
56943;SDS011;42848;42.524;12.052;2023-08-06T13:04:07;6.00;;;2.25;;
56943;SDS011;42848;42.524;12.052;2023-08-06T13:06:33;5.57;;;1.95;;
56943;SDS011;42848;42.524;12.052;2023-08-06T13:09:20;6.00;;;2.22;;
56943;SDS011;42848;42.524;12.052;2023-08-06T13:14:15;14.90;;;9.43;;
56943;SDS011;42848;42.524;12.052;2023-08-06T13:16:42;6.10;;;3.13;;
56943;SDS011;42848;42.524;12.052;2023-08-06T13:19:09;15.07;;;8.00;;
56943;SDS011;42848;42.524;12.052;2023-08-06T13:24:27;7.57;;;2.40;;
56943;SDS011;42848;42.524;12.052;2023-08-06T13:26:53;9.80;;;5.32;;
56943;SDS011;42848;42.524;12.052;2023-08-06T13:29:19;8.70;;;3.13;;
56943;SDS011;42848;42.524;12.052;2023-08-06T13:31:45;8.18;;;2.72;;
56943;SDS011;42848;42.524;12.052;2023-08-06T13:34:10;7.75;;;2.60;;
56943;SDS011;42848;42.524;12.052;2023-08-06T13:36:36;6.90;;;2.25;;
56943;SDS011;42848;42.524;12.052;2023-08-06T13:39:02;8.48;;;4.43;;
56943;SDS011;42848;42.524;12.052;2023-08-06T13:41:28;12.60;;;2.80;;
56943;SDS011;42848;42.524;12.052;2023-08-06T13:43:54;9.05;;;3.67;;
56943;SDS011;42848;42.524;12.052;2023-08-06T13:46:19;8.05;;;3.20;;
56943;SDS011;42848;42.524;12.052;2023-08-06T13:48:45;8.00;;;3.28;;
56943;SDS011;42848;42.524;12.052;2023-08-06T13:51:12;9.48;;;3.33;;
56943;SDS011;42848;42.524;12.052;2023-08-06T13:53:41;7.90;;;2.92;;
56943;SDS011;42848;42.524;12.052;2023-08-06T13:56:07;7.63;;;3.00;;
56943;SDS011;42848;42.524;12.052;2023-08-06T13:58:37;6.72;;;2.47;;
56943;SDS011;42848;42.524;12.052;2023-08-06T14:01:03;8.88;;;2.70;;
56943;SDS011;42848;42.524;12.052;2023-08-06T14:03:29;8.07;;;2.70;;
56943;SDS011;42848;42.524;12.052;2023-08-06T14:05:55;9.30;;;2.50;;
56943;SDS011;42848;42.524;12.052;2023-08-06T14:08:22;9.35;;;2.83;;
56943;SDS011;42848;42.524;12.052;2023-08-06T14:10:48;6.47;;;2.63;;
56943;SDS011;42848;42.524;12.052;2023-08-06T14:13:14;8.52;;;3.33;;
56943;SDS011;42848;42.524;12.052;2023-08-06T14:15:40;11.35;;;3.15;;
56943;SDS011;42848;42.524;12.052;2023-08-06T14:18:06;12.35;;;2.60;;
56943;SDS011;42848;42.524;12.052;2023-08-06T14:20:35;7.93;;;2.67;;
56943;SDS011;42848;42.524;12.052;2023-08-06T14:23:00;7.70;;;2.47;;
56943;SDS011;42848;42.524;12.052;2023-08-06T14:25:26;7.43;;;2.60;;
56943;SDS011;42848;42.524;12.052;2023-08-06T14:27:52;9.30;;;2.75;;
56943;SDS011;42848;42.524;12.052;2023-08-06T14:30:17;8.30;;;2.53;;
56943;SDS011;42848;42.524;12.052;2023-08-06T14:32:43;7.53;;;2.60;;
56943;SDS011;42848;42.524;12.052;2023-08-06T14:35:09;12.88;;;2.60;;
56943;SDS011;42848;42.524;12.052;2023-08-06T14:37:34;8.93;;;3.00;;
56943;SDS011;42848;42.524;12.052;2023-08-06T14:40:00;8.55;;;3.05;;
56943;SDS011;42848;42.524;12.052;2023-08-06T14:42:26;7.60;;;2.70;;
56943;SDS011;42848;42.524;12.052;2023-08-06T14:44:52;8.30;;;3.60;;
56943;SDS011;42848;42.524;12.052;2023-08-06T14:47:17;9.10;;;2.67;;
56943;SDS011;42848;42.524;12.052;2023-08-06T14:49:43;8.85;;;2.60;;
56943;SDS011;42848;42.524;12.052;2023-08-06T14:52:10;7.47;;;2.60;;